Philadelphia, Pennsylvania
Traffic Map
Current Weather Conditions
Philadelphia, Pennsylvania
Few Clouds
Few Clouds
32°
Feels Like: 20°
Wind Chill: 20° Ceiling: Unl
Heat Index: 32° Visibility: 10mi
Dew Point: 11° Wind: 20mph
Humidity: 42% Direction: 330° (NNW)
Pressure: 30.23in Gusts: 31mph
Raw Report DataKPHL 160954Z 33017G27KT 10SM FEW150 00/M12 A3023 RMK AO2 PK WND 35031/0915 PRESRR SLP235 T00001117 $
Traffic Incident Summary
Active as of:
Severity:
Category:
InformationThere was an issue retrieving the traffic information for this location. Please try a different location or try again shortly.
Advertisements
At Last! Intellicast now available for iPhone and Android